Time;durP1;ratioP1;P1;durP2;ratioP2;P2;SDS_P1;SDS_P2;PMS_P1;PMS_P2;Temp;Humidity;BMP_temperature;BMP_pressure;BME280_temperature;BME280_humidity;BME280_pressure;Samples;Min_cycle;Max_cycle;Signal;HPM_P1;HPM_P2
2024/01/05 00:01:26;;;;;;;6.65;2.97;;;;;;;7.15;62.51;100435.38;5020420;27;99300;-72
2024/01/05 00:03:52;;;;;;;7.15;3.00;;;;;;;7.08;62.57;100449.63;5025672;27;98848;-72
2024/01/05 00:06:19;;;;;;;5.47;2.95;;;;;;;6.88;63.22;100446.63;5024699;27;96996;-71
2024/01/05 00:08:45;;;;;;;5.55;3.40;;;;;;;7.11;63.02;100453.91;5015958;27;98187;-71
2024/01/05 00:11:17;;;;;;;6.50;3.10;;;;;;;7.18;61.78;100451.09;5022947;27;100177;-71
2024/01/05 00:13:44;;;;;;;6.25;3.00;;;;;;;7.08;61.14;100448.75;5015925;27;100010;-72
2024/01/05 00:16:17;;;;;;;5.93;3.08;;;;;;;7.22;60.78;100454.47;5026077;27;96767;-72
2024/01/05 00:18:45;;;;;;;12.20;4.38;;;;;;;7.07;61.39;100457.53;5022346;27;96989;-72
2024/01/05 00:21:22;;;;;;;5.18;2.90;;;;;;;7.33;60.86;100459.47;5023080;27;101198;-72
2024/01/05 00:23:48;;;;;;;8.05;3.60;;;;;;;7.31;60.74;100463.91;5018598;27;99233;-71
2024/01/05 00:26:15;;;;;;;4.60;3.03;;;;;;;7.37;61.33;100461.97;5021429;27;97929;-71
2024/01/05 00:28:42;;;;;;;5.20;3.00;;;;;;;7.05;61.09;100459.31;5030527;27;96830;-71
2024/01/05 00:31:09;;;;;;;8.82;3.55;;;;;;;7.13;61.57;100467.88;5020524;27;98393;-70
2024/01/05 00:33:36;;;;;;;8.45;3.10;;;;;;;7.09;61.40;100464.44;5025929;27;101298;-69
2024/01/05 00:36:04;;;;;;;9.07;3.75;;;;;;;7.18;61.16;100460.72;5025346;27;96703;-69
2024/01/05 00:38:31;;;;;;;5.32;3.40;;;;;;;7.34;60.86;100462.06;5023957;27;97677;-69
2024/01/05 00:40:57;;;;;;;6.30;3.22;;;;;;;7.07;61.33;100466.28;5024420;27;99195;-69
2024/01/05 00:43:24;;;;;;;4.43;3.25;;;;;;;6.94;61.84;100461.38;5020048;27;98113;-69
2024/01/05 00:45:50;;;;;;;8.88;3.10;;;;;;;7.04;61.20;100468.09;5022578;27;96958;-69
2024/01/05 00:48:17;;;;;;;7.95;2.97;;;;;;;7.22;60.79;100466.78;5015560;27;97247;-69
2024/01/05 00:50:43;;;;;;;6.78;3.13;;;;;;;7.08;61.44;100469.75;5018523;27;98923;-69
2024/01/05 00:53:11;;;;;;;9.13;3.47;;;;;;;7.09;60.98;100460.94;5019327;27;98814;-69
2024/01/05 00:55:38;;;;;;;5.57;2.95;;;;;;;6.94;61.20;100466.63;5015861;27;97514;-69
2024/01/05 00:58:05;;;;;;;5.60;2.92;;;;;;;6.94;61.85;100464.00;5019602;27;96798;-69
2024/01/05 01:00:31;;;;;;;5.40;3.20;;;;;;;7.05;61.52;100464.56;5022512;27;99565;-68
2024/01/05 01:02:58;;;;;;;8.40;3.60;;;;;;;6.98;62.01;100460.38;5021354;27;97608;-69
2024/01/05 01:05:24;;;;;;;7.20;3.70;;;;;;;6.94;62.33;100466.63;5023888;27;97193;-69
2024/01/05 01:07:50;;;;;;;6.85;3.47;;;;;;;6.88;62.24;100457.13;5018739;27;96886;-69
2024/01/05 01:10:18;;;;;;;5.18;3.42;;;;;;;6.93;62.03;100442.13;5020359;27;98895;-71
2024/01/05 01:12:44;;;;;;;10.20;3.95;;;;;;;6.98;61.49;100458.63;5022690;27;99723;-70
2024/01/05 01:15:11;;;;;;;6.72;3.67;;;;;;;6.78;62.12;100461.75;5021188;27;96652;-71
2024/01/05 01:17:37;;;;;;;9.65;3.88;;;;;;;6.86;61.93;100451.03;5028504;27;97220;-70
2024/01/05 01:20:05;;;;;;;7.60;3.92;;;;;;;6.88;62.22;100458.91;5025518;27;98812;-70
2024/01/05 01:22:31;;;;;;;7.72;3.40;;;;;;;6.92;61.16;100457.91;5028848;27;99180;-70
2024/01/05 01:24:58;;;;;;;8.02;3.22;;;;;;;6.88;61.28;100462.38;5027924;27;97158;-69
2024/01/05 01:27:25;;;;;;;5.38;2.72;;;;;;;6.82;62.02;100462.53;5028495;27;96930;-69
2024/01/05 01:29:52;;;;;;;8.45;3.20;;;;;;;6.91;61.92;100446.53;5018236;27;99041;-69
2024/01/05 01:32:19;;;;;;;8.93;3.42;;;;;;;7.08;61.37;100446.13;5020857;27;99161;-69
2024/01/05 01:34:45;;;;;;;9.60;4.15;;;;;;;7.09;60.89;100447.81;5018888;27;96748;-71
2024/01/05 01:37:12;;;;;;;6.25;2.97;;;;;;;6.89;61.05;100458.00;5026347;27;97320;-70
2024/01/05 01:39:38;;;;;;;6.43;3.10;;;;;;;7.01;60.83;100447.19;5019178;27;98214;-70
2024/01/05 01:42:05;;;;;;;7.15;2.47;;;;;;;7.05;60.13;100438.31;5026769;27;98986;-71
2024/01/05 01:44:33;;;;;;;5.53;2.78;;;;;;;6.87;60.23;100438.78;5026245;27;99046;-70
2024/01/05 01:46:59;;;;;;;6.00;2.97;;;;;;;7.22;60.15;100436.06;5026796;27;96932;-71
2024/01/05 01:49:27;;;;;;;7.82;3.10;;;;;;;7.23;59.71;100432.56;5022780;27;99183;-70
2024/01/05 01:51:54;;;;;;;6.13;3.05;;;;;;;7.08;60.07;100435.63;5022473;27;98826;-71
2024/01/05 01:54:21;;;;;;;7.88;3.08;;;;;;;7.01;59.89;100428.78;5022529;27;97202;-70
2024/01/05 01:56:49;;;;;;;7.18;2.92;;;;;;;7.33;60.00;100410.41;5026977;27;96871;-70
2024/01/05 01:59:17;;;;;;;7.18;2.90;;;;;;;7.50;58.92;100402.88;5027010;27;98827;-71
2024/01/05 02:01:44;;;;;;;7.97;3.20;;;;;;;7.63;58.64;100403.41;5017270;27;99264;-70
2024/01/05 02:04:15;;;;;;;6.28;3.40;;;;;;;7.67;58.85;100412.94;5025005;27;97220;-70
2024/01/05 02:06:44;;;;;;;5.45;2.65;;;;;;;7.30;59.67;100413.09;5020717;27;97320;-70
2024/01/05 02:09:10;;;;;;;4.13;2.65;;;;;;;7.54;58.72;100411.56;5025609;27;98866;-70
2024/01/05 02:11:36;;;;;;;5.95;2.13;;;;;;;7.34;58.85;100435.78;5021504;27;99201;-69
2024/01/05 02:14:03;;;;;;;6.07;2.53;;;;;;;7.40;58.98;100430.34;5028316;27;97214;-70
2024/01/05 02:16:30;;;;;;;8.52;2.55;;;;;;;7.26;59.18;100436.88;5024456;27;97003;-70
2024/01/05 02:18:57;;;;;;;6.60;2.70;;;;;;;7.24;59.38;100434.28;5023189;27;99421;-70
2024/01/05 02:21:27;;;;;;;6.53;2.65;;;;;;;7.34;58.95;100430.53;5025351;27;98064;-70
2024/01/05 02:23:55;;;;;;;5.95;2.75;;;;;;;7.15;59.31;100431.91;5025944;27;97711;-70
2024/01/05 02:26:22;;;;;;;5.68;2.45;;;;;;;7.22;58.89;100430.81;5026768;27;97480;-70
2024/01/05 02:28:49;;;;;;;7.00;2.67;;;;;;;7.09;59.44;100429.41;5030465;27;99368;-70
2024/01/05 02:31:15;;;;;;;6.18;2.63;;;;;;;7.16;59.74;100437.13;5025455;27;98899;-70
2024/01/05 02:33:41;;;;;;;6.78;2.88;;;;;;;7.16;59.60;100431.00;5026229;27;97825;-71
2024/01/05 02:36:08;;;;;;;4.55;2.88;;;;;;;7.10;60.18;100431.16;5028214;27;101059;-70
2024/01/05 02:38:34;;;;;;;6.35;2.72;;;;;;;7.14;59.96;100427.56;5023052;27;99181;-69
2024/01/05 02:41:02;;;;;;;7.43;3.33;;;;;;;7.27;59.44;100423.72;5026780;27;99847;-70
2024/01/05 02:43:29;;;;;;;6.10;2.60;;;;;;;7.23;59.43;100422.03;5025111;27;96885;-70
2024/01/05 02:45:55;;;;;;;5.32;2.80;;;;;;;7.00;60.02;100417.41;5026070;27;97193;-70
2024/01/05 02:48:22;;;;;;;7.13;2.70;;;;;;;6.98;60.65;100413.94;5018365;27;98930;-70
2024/01/05 02:50:48;;;;;;;4.10;2.47;;;;;;;7.49;58.57;100403.78;5018428;27;98756;-70
2024/01/05 02:53:15;;;;;;;7.30;2.88;;;;;;;7.66;58.53;100389.31;5023383;27;97326;-70
2024/01/05 02:55:41;;;;;;;6.45;2.40;;;;;;;7.67;57.38;100391.03;5021241;27;96805;-70
2024/01/05 02:58:09;;;;;;;7.00;2.22;;;;;;;7.40;58.28;100393.56;5024212;27;98793;-70
2024/01/05 03:00:35;;;;;;;5.75;2.70;;;;;;;7.42;58.92;100396.97;5021566;27;97549;-71
2024/01/05 03:03:03;;;;;;;6.07;2.53;;;;;;;7.51;59.16;100396.72;5026526;27;99348;-70
2024/01/05 03:05:30;;;;;;;6.97;2.47;;;;;;;7.45;59.43;100394.28;5019045;27;97737;-71
2024/01/05 03:07:56;;;;;;;6.00;2.75;;;;;;;7.38;58.76;100400.59;5018440;27;101856;-71
2024/01/05 03:10:23;;;;;;;4.90;2.58;;;;;;;7.30;59.34;100402.56;5025093;27;102183;-71
2024/01/05 03:12:51;;;;;;;5.97;2.50;;;;;;;7.17;59.38;100398.56;5025086;27;97168;-71
2024/01/05 03:15:19;;;;;;;5.22;2.35;;;;;;;7.27;59.67;100394.78;5024444;27;98123;-71
2024/01/05 03:17:46;;;;;;;6.25;2.33;;;;;;;7.59;59.29;100386.88;5014334;27;99206;-71
2024/01/05 03:20:12;;;;;;;3.22;2.47;;;;;;;7.66;58.59;100379.66;5022322;27;99719;-71
2024/01/05 03:22:39;;;;;;;4.80;2.60;;;;;;;7.69;58.31;100376.91;5024913;27;96909;-71
2024/01/05 03:25:06;;;;;;;3.78;2.65;;;;;;;7.69;58.13;100378.69;5025538;27;97443;-71
2024/01/05 03:27:33;;;;;;;5.53;2.50;;;;;;;7.85;57.79;100379.97;5023206;27;101402;-71
2024/01/05 03:29:59;;;;;;;4.50;2.63;;;;;;;7.83;57.30;100368.63;5016753;27;99106;-71
2024/01/05 03:32:27;;;;;;;5.90;2.90;;;;;;;7.81;57.36;100373.09;5018256;27;98797;-71
2024/01/05 03:34:54;;;;;;;8.65;2.80;;;;;;;7.81;57.34;100362.56;5024853;27;98605;-71
2024/01/05 03:37:20;;;;;;;5.72;2.80;;;;;;;7.67;58.04;100360.34;5020928;27;99331;-71
2024/01/05 03:39:47;;;;;;;4.50;2.22;;;;;;;7.89;57.64;100356.13;5022850;27;97886;-72
2024/01/05 03:42:12;;;;;;;6.65;2.42;;;;;;;7.86;57.43;100350.13;5021932;27;97264;-70
2024/01/05 03:44:38;;;;;;;;;;;;;;;7.71;57.69;100347.94;5022544;27;99329;-70
2024/01/05 03:47:05;;;;;;;3.83;2.30;;;;;;;7.58;58.14;100352.72;5018591;27;99679;-70
2024/01/05 03:49:33;;;;;;;6.28;2.53;;;;;;;7.60;58.51;100353.53;5024022;27;100766;-70
2024/01/05 03:51:59;;;;;;;9.27;2.95;;;;;;;7.60;58.44;100353.53;5022820;27;96848;-71
2024/01/05 03:54:25;;;;;;;5.78;2.72;;;;;;;7.57;58.18;100353.63;5025140;27;96799;-69
2024/01/05 03:56:52;;;;;;;5.38;2.67;;;;;;;7.37;59.02;100356.81;5025808;27;99207;-71
2024/01/05 03:59:18;;;;;;;7.40;3.70;;;;;;;7.56;58.83;100346.63;5020450;27;98948;-70
2024/01/05 04:01:45;;;;;;;7.70;3.00;;;;;;;7.50;59.62;100352.06;5025832;27;96763;-70
2024/01/05 04:04:11;;;;;;;6.15;2.75;;;;;;;7.30;60.25;100351.78;5025645;27;96835;-70
2024/01/05 04:06:39;;;;;;;5.20;2.65;;;;;;;7.27;60.65;100344.00;5020288;27;97934;-70
2024/01/05 04:09:09;;;;;;;7.60;3.53;;;;;;;7.15;60.86;100342.59;5019362;27;99348;-70
2024/01/05 04:11:36;;;;;;;5.93;2.50;;;;;;;7.06;61.51;100337.56;5020171;27;98342;-70
2024/01/05 04:14:03;;;;;;;3.72;2.40;;;;;;;7.28;61.32;100341.34;5020302;27;98738;-70
2024/01/05 04:16:30;;;;;;;5.38;2.80;;;;;;;7.40;60.43;100343.59;5019169;27;99276;-71
2024/01/05 04:18:56;;;;;;;11.07;2.95;;;;;;;7.50;60.14;100336.28;5020387;27;97428;-71
2024/01/05 04:21:23;;;;;;;8.88;2.90;;;;;;;7.57;59.57;100327.31;5025037;27;97327;-70
2024/01/05 04:23:52;;;;;;;5.28;2.65;;;;;;;7.60;59.62;100332.50;5018579;27;100269;-71
2024/01/05 04:26:19;;;;;;;5.65;2.65;;;;;;;7.72;59.08;100331.28;5019586;27;98427;-71
2024/01/05 04:28:45;;;;;;;5.70;2.70;;;;;;;7.40;59.34;100325.19;5023146;27;99227;-72
2024/01/05 04:31:11;;;;;;;5.18;2.80;;;;;;;7.41;60.18;100337.44;5026112;27;97043;-71
2024/01/05 04:33:38;;;;;;;5.88;2.70;;;;;;;7.24;61.03;100329.16;5017893;27;96946;-70
2024/01/05 04:36:05;;;;;;;7.53;2.80;;;;;;;7.08;60.75;100333.16;5021482;27;99840;-70
2024/01/05 04:38:34;;;;;;;4.68;2.92;;;;;;;6.71;61.87;100338.50;5023036;27;98720;-70
2024/01/05 04:41:02;;;;;;;7.25;3.05;;;;;;;6.72;62.25;100341.09;5020713;27;96719;-70
2024/01/05 04:43:29;;;;;;;3.88;2.80;;;;;;;7.07;61.73;100327.03;5020462;27;99079;-68
2024/01/05 04:45:55;;;;;;;7.13;2.92;;;;;;;7.30;60.68;100321.09;5021317;27;99097;-70
2024/01/05 04:48:21;;;;;;;3.85;2.92;;;;;;;7.07;61.28;100321.78;5017834;27;98804;-70
2024/01/05 04:50:48;;;;;;;4.57;2.63;;;;;;;7.01;61.67;100324.56;5025681;27;97411;-70
2024/01/05 04:53:14;;;;;;;6.20;3.47;;;;;;;6.86;61.68;100310.97;5020381;27;96785;-70
2024/01/05 04:55:41;;;;;;;6.90;3.42;;;;;;;6.64;62.73;100319.41;5025047;27;98845;-71
2024/01/05 04:58:09;;;;;;;5.03;2.88;;;;;;;7.08;61.70;100309.50;5023972;27;99111;-71
2024/01/05 05:00:35;;;;;;;6.65;2.97;;;;;;;7.09;61.20;100298.91;5028376;27;97164;-70
2024/01/05 05:03:01;;;;;;;4.80;2.85;;;;;;;7.09;61.66;100309.44;5028699;27;97155;-72
2024/01/05 05:05:28;;;;;;;6.78;2.78;;;;;;;7.18;60.84;100300.44;5026835;27;98943;-70
2024/01/05 05:07:54;;;;;;;7.25;3.00;;;;;;;7.30;60.89;100289.56;5028037;27;101733;-71
2024/01/05 05:10:22;;;;;;;4.53;2.63;;;;;;;7.42;59.80;100286.56;5026674;27;97297;-70
2024/01/05 05:12:49;;;;;;;6.68;2.55;;;;;;;7.19;60.61;100278.50;5014181;27;99035;-70
2024/01/05 05:15:16;;;;;;;8.13;3.60;;;;;;;7.34;60.81;100271.97;5024383;27;98884;-72
2024/01/05 05:17:43;;;;;;;5.30;3.40;;;;;;;7.33;60.98;100273.72;5021156;27;99063;-70
2024/01/05 05:20:10;;;;;;;7.75;3.10;;;;;;;7.28;61.19;100277.41;5024433;28;97130;-70
2024/01/05 05:22:37;;;;;;;5.63;3.28;;;;;;;7.26;61.78;100277.44;5023166;27;97646;-71
2024/01/05 05:25:03;;;;;;;5.57;3.22;;;;;;;7.21;62.05;100274.09;5023687;27;98147;-70
2024/01/05 05:27:31;;;;;;;5.63;3.40;;;;;;;7.43;61.14;100264.63;5028040;27;96822;-70
2024/01/05 05:29:57;;;;;;;5.32;3.30;;;;;;;7.54;61.25;100270.44;5027988;27;96937;-69
2024/01/05 05:32:25;;;;;;;11.70;4.00;;;;;;;7.43;61.77;100262.00;5024695;27;97255;-70
2024/01/05 05:34:52;;;;;;;5.10;3.05;;;;;;;7.35;62.91;100261.38;5021443;27;99268;-70
2024/01/05 05:37:18;;;;;;;9.75;3.30;;;;;;;7.17;62.98;100264.56;5025580;27;99105;-70
2024/01/05 05:39:45;;;;;;;4.55;3.08;;;;;;;7.57;62.05;100262.44;5024977;27;96917;-70
2024/01/05 05:42:11;;;;;;;6.72;3.30;;;;;;;7.52;61.70;100259.09;5026616;27;96714;-70
2024/01/05 05:44:38;;;;;;;5.97;2.80;;;;;;;7.24;62.30;100260.84;5020336;27;97643;-70
2024/01/05 05:47:04;;;;;;;7.90;3.67;;;;;;;7.15;63.05;100255.88;5024394;27;98561;-70
2024/01/05 05:49:32;;;;;;;6.38;3.30;;;;;;;7.36;61.69;100264.88;5026100;27;99732;-70
2024/01/05 05:51:59;;;;;;;5.13;3.38;;;;;;;7.15;62.14;100264.59;5019162;27;97684;-71
2024/01/05 05:54:25;;;;;;;4.63;3.40;;;;;;;7.39;61.95;100270.03;5024773;27;99055;-70
2024/01/05 05:56:52;;;;;;;4.40;3.10;;;;;;;7.34;61.78;100262.31;5016961;27;98786;-70
2024/01/05 05:59:19;;;;;;;13.00;4.63;;;;;;;7.24;62.10;100266.09;5025386;27;96749;-70
2024/01/05 06:01:46;;;;;;;7.90;3.60;;;;;;;7.28;62.09;100273.00;5022995;27;97209;-70
2024/01/05 06:04:13;;;;;;;6.30;3.67;;;;;;;7.30;61.87;100279.06;5024068;27;99479;-70
2024/01/05 06:06:41;;;;;;;6.57;3.53;;;;;;;6.99;62.94;100278.22;5025321;27;98795;-70
2024/01/05 06:09:08;;;;;;;8.93;3.95;;;;;;;7.13;62.26;100286.56;5020395;27;96767;-71
2024/01/05 06:11:34;;;;;;;9.82;4.03;;;;;;;7.16;62.67;100294.34;5020861;27;97265;-69
2024/01/05 06:14:04;;;;;;;5.47;3.58;;;;;;;7.11;62.28;100291.88;5021567;27;100547;-69
2024/01/05 06:16:30;;;;;;;6.65;3.53;;;;;;;7.01;63.02;100300.06;5025902;27;98774;-70
2024/01/05 06:18:57;;;;;;;6.28;3.20;;;;;;;7.27;62.28;100308.06;5014409;27;98525;-70
2024/01/05 06:21:23;;;;;;;7.32;3.33;;;;;;;7.14;62.37;100304.06;5021627;27;97804;-70
2024/01/05 06:23:51;;;;;;;6.15;3.22;;;;;;;7.09;63.16;100304.19;5023609;27;99268;-69
2024/01/05 06:26:18;;;;;;;6.25;3.05;;;;;;;7.12;63.53;100306.72;5028267;27;97540;-71
2024/01/05 06:28:44;;;;;;;6.53;2.78;;;;;;;6.96;64.20;100310.69;5026826;27;97226;-70
2024/01/05 06:31:11;;;;;;;4.65;2.83;;;;;;;7.01;64.28;100311.44;5025763;27;96880;-71
2024/01/05 06:33:37;;;;;;;6.50;3.20;;;;;;;6.83;65.40;100324.22;5023935;27;99407;-71
2024/01/05 06:36:04;;;;;;;7.25;3.30;;;;;;;7.09;64.80;100324.31;5022777;27;97607;-71
2024/01/05 06:38:31;;;;;;;4.53;2.88;;;;;;;6.58;66.08;100329.22;5020720;27;96947;-71
2024/01/05 06:40:59;;;;;;;7.25;3.10;;;;;;;6.87;66.02;100328.47;5025790;27;97989;-71
2024/01/05 06:43:25;;;;;;;4.55;2.70;;;;;;;6.91;66.26;100335.34;5025922;27;98454;-70
2024/01/05 06:45:54;;;;;;;5.65;2.67;;;;;;;7.11;65.59;100330.41;5021552;27;101398;-70
2024/01/05 06:48:21;;;;;;;6.03;3.15;;;;;;;6.94;66.26;100335.28;5028491;27;97109;-71
2024/01/05 06:50:48;;;;;;;6.03;3.10;;;;;;;6.88;68.18;100330.19;5024395;27;97189;-70
2024/01/05 06:53:14;;;;;;;8.93;3.38;;;;;;;6.78;68.82;100332.19;5020646;27;99365;-69
2024/01/05 06:55:41;;;;;;;6.20;4.00;;;;;;;6.77;70.36;100336.59;5026502;27;98996;-69
2024/01/05 06:58:09;;;;;;;6.40;3.40;;;;;;;6.78;68.82;100333.06;5019127;27;97122;-69
2024/01/05 07:00:37;;;;;;;5.25;3.05;;;;;;;6.93;68.93;100334.41;5026052;27;97107;-69
2024/01/05 07:03:04;;;;;;;6.63;3.30;;;;;;;6.97;68.97;100337.81;5024464;27;101370;-70
2024/01/05 07:05:31;;;;;;;9.82;3.58;;;;;;;6.86;68.99;100334.63;5024451;27;99046;-69
2024/01/05 07:07:57;;;;;;;6.32;3.50;;;;;;;6.97;69.29;100324.69;5022941;27;96879;-69
2024/01/05 07:10:24;;;;;;;5.88;3.90;;;;;;;7.05;68.47;100320.09;5024083;27;101391;-76
2024/01/05 07:12:52;;;;;;;9.70;5.00;;;;;;;7.14;68.54;100320.69;5023434;27;99475;-74
2024/01/05 07:15:19;;;;;;;6.07;4.22;;;;;;;6.87;69.86;100317.97;5023017;27;97999;-76
2024/01/05 07:17:46;;;;;;;11.10;4.85;;;;;;;6.43;71.20;100320.00;5023451;27;98912;-76
2024/01/05 07:20:13;;;;;;;11.23;4.80;;;;;;;6.37;73.61;100315.75;5025165;27;97192;-74
2024/01/05 07:22:39;;;;;;;11.63;5.30;;;;;;;6.26;74.47;100314.28;5020138;27;98846;-75
2024/01/05 07:25:09;;;;;;;15.63;5.97;;;;;;;6.53;75.19;100310.97;5025130;27;100001;-71
2024/01/05 07:27:36;;;;;;;13.90;6.07;;;;;;;6.51;74.26;100304.03;5025021;27;96830;-71
2024/01/05 07:30:03;;;;;;;11.70;6.43;;;;;;;6.75;74.96;100300.78;5026348;27;97071;-72
2024/01/05 07:32:31;;;;;;;14.50;6.60;;;;;;;6.61;72.80;100295.91;5019061;27;97742;-73
2024/01/05 07:34:57;;;;;;;12.00;6.57;;;;;;;6.42;75.48;100302.53;5025401;27;101463;-73
2024/01/05 07:37:24;;;;;;;11.50;7.22;;;;;;;6.30;75.07;100300.22;5022064;27;97431;-69
2024/01/05 07:39:50;;;;;;;15.93;7.60;;;;;;;6.42;75.59;100299.91;5022191;27;97215;-70
2024/01/05 07:42:17;;;;;;;12.90;7.10;;;;;;;6.43;75.09;100300.75;5009969;28;99084;-75
2024/01/05 07:44:43;;;;;;;15.43;7.68;;;;;;;6.51;74.94;100286.53;5009778;27;100616;-74
2024/01/05 07:47:11;;;;;;;17.80;7.70;;;;;;;6.38;75.27;100290.38;5008945;27;99444;-76
2024/01/05 07:49:41;;;;;;;15.77;7.75;;;;;;;6.40;75.20;100280.69;5015669;27;98616;-76
2024/01/05 07:52:10;;;;;;;15.00;7.30;;;;;;;6.75;74.00;100285.88;5019634;27;98851;-74
2024/01/05 07:54:40;;;;;;;14.68;7.68;;;;;;;6.60;73.20;100288.91;5020914;27;98845;-75
2024/01/05 07:57:06;;;;;;;14.13;7.95;;;;;;;6.56;73.33;100295.16;5025425;27;96848;-75
2024/01/05 07:59:33;;;;;;;16.63;7.88;;;;;;;6.65;73.05;100299.28;5025876;27;97201;-75
2024/01/05 08:02:00;;;;;;;14.55;7.55;;;;;;;6.42;73.73;100283.28;5018084;27;100195;-75
2024/01/05 08:04:26;;;;;;;18.73;8.30;;;;;;;6.48;73.81;100270.88;5026004;27;99051;-74
2024/01/05 08:06:54;;;;;;;13.50;7.78;;;;;;;6.58;72.61;100282.84;5023283;27;96807;-74
2024/01/05 08:09:32;;;;;;;13.45;7.90;;;;;;;6.34;72.57;100292.22;5028091;27;97146;-74
2024/01/05 08:11:58;;;;;;;18.77;8.35;;;;;;;6.66;72.09;100283.50;5025084;27;99861;-74
2024/01/05 08:14:25;;;;;;;13.45;8.23;;;;;;;6.67;71.56;100284.38;5023103;27;99166;-74
2024/01/05 08:16:51;;;;;;;19.02;9.77;;;;;;;6.48;72.14;100305.00;5015372;27;97543;-76
2024/01/05 08:19:18;;;;;;;17.42;7.95;;;;;;;6.34;72.65;100302.72;5021935;27;97302;-74
2024/01/05 08:21:44;;;;;;;15.93;7.82;;;;;;;6.37;72.63;100299.13;5023287;27;98856;-74
2024/01/05 08:24:12;;;;;;;16.67;8.80;;;;;;;6.70;71.49;100298.25;5018648;27;101707;-75
2024/01/05 08:26:38;;;;;;;15.27;7.45;;;;;;;6.56;71.71;100296.91;5019842;28;100402;-75
2024/01/05 08:29:05;;;;;;;13.95;7.50;;;;;;;6.48;72.56;100299.75;5021966;27;97342;-74
2024/01/05 08:31:31;;;;;;;16.77;7.10;;;;;;;6.35;72.41;100295.72;5019643;27;98856;-74
2024/01/05 08:33:58;;;;;;;10.90;6.05;;;;;;;6.53;72.60;100297.00;5024134;27;99065;-74
2024/01/05 08:36:24;;;;;;;13.98;7.07;;;;;;;6.61;72.43;100295.91;5027036;27;98144;-75
2024/01/05 08:38:50;;;;;;;16.63;7.82;;;;;;;6.60;72.66;100295.94;5022006;27;96874;-74
2024/01/05 08:41:18;;;;;;;16.00;7.65;;;;;;;6.66;72.72;100296.63;5009758;27;99344;-76
2024/01/05 08:43:45;;;;;;;14.38;7.43;;;;;;;6.62;75.16;100296.75;5020804;27;98865;-76
2024/01/05 08:46:11;;;;;;;13.88;7.68;;;;;;;6.52;74.16;100288.25;5023379;27;96830;-75
2024/01/05 08:48:39;;;;;;;11.48;7.40;;;;;;;6.66;73.77;100282.63;5020208;27;97686;-76
2024/01/05 08:51:05;;;;;;;14.68;7.45;;;;;;;6.56;72.82;100282.03;5020560;28;99396;-76
2024/01/05 08:53:31;;;;;;;11.60;6.82;;;;;;;6.71;72.89;100270.25;5020769;27;99038;-76
2024/01/05 08:55:58;;;;;;;12.18;7.15;;;;;;;6.82;71.89;100269.97;5023455;27;96909;-75
2024/01/05 08:58:26;;;;;;;12.70;6.43;;;;;;;6.24;74.50;100271.47;5021346;27;97122;-75
2024/01/05 09:00:53;;;;;;;16.20;7.45;;;;;;;6.49;74.20;100269.09;5019603;27;98956;-75
2024/01/05 09:03:19;;;;;;;14.82;6.88;;;;;;;6.47;73.37;100266.50;5010262;27;97768;-75
2024/01/05 09:05:47;;;;;;;12.52;6.25;;;;;;;6.57;73.02;100273.22;5020283;27;97755;-75
2024/01/05 09:08:13;;;;;;;11.20;6.53;;;;;;;6.79;72.90;100257.75;5014192;27;98096;-75
2024/01/05 09:10:40;;;;;;;13.75;6.68;;;;;;;6.68;72.31;100265.94;5018600;27;99118;-76
2024/01/05 09:13:06;;;;;;;12.05;6.38;;;;;;;6.72;71.91;100267.56;5020015;27;98160;-75
2024/01/05 09:15:34;;;;;;;11.82;6.20;;;;;;;6.83;70.92;100269.06;5018891;27;96862;-75
2024/01/05 09:18:01;;;;;;;14.32;6.25;;;;;;;6.79;70.99;100269.13;5024367;27;96957;-75
2024/01/05 09:20:29;;;;;;;8.45;5.07;;;;;;;6.75;70.76;100264.03;5019583;27;98842;-75
2024/01/05 09:22:55;;;;;;;10.13;5.63;;;;;;;6.74;70.51;100265.78;5015612;27;99275;-78
2024/01/05 09:25:22;;;;;;;9.10;4.78;;;;;;;6.49;71.63;100267.34;5018849;27;99725;-75
2024/01/05 09:27:48;;;;;;;8.15;5.57;;;;;;;6.41;72.43;100258.81;5019644;27;96931;-75
2024/01/05 09:30:15;;;;;;;9.30;5.05;;;;;;;6.36;72.52;100258.06;5006623;27;99354;-75
2024/01/05 09:32:43;;;;;;;9.25;4.70;;;;;;;6.30;72.25;100266.09;5004893;28;97766;-76
2024/01/05 09:35:11;;;;;;;6.95;4.80;;;;;;;6.13;73.08;100263.88;5006336;27;98307;-76
2024/01/05 09:37:38;;;;;;;11.60;5.50;;;;;;;5.97;74.16;100259.94;5023365;28;98815;-76
2024/01/05 09:40:05;;;;;;;13.35;5.47;;;;;;;6.20;73.46;100256.72;5021927;27;98817;-75
2024/01/05 09:42:33;;;;;;;9.55;5.63;;;;;;;6.33;73.32;100258.13;5023089;27;99091;-75
2024/01/05 09:45:01;;;;;;;8.40;5.40;;;;;;;6.16;73.38;100258.59;5018938;27;98699;-76
2024/01/05 09:47:28;;;;;;;7.20;5.05;;;;;;;6.26;73.94;100267.94;5027377;27;97096;-76
2024/01/05 09:49:59;;;;;;;9.73;5.72;;;;;;;6.35;73.06;100258.97;5025359;27;97576;-76
2024/01/05 09:52:25;;;;;;;6.68;4.93;;;;;;;6.30;72.34;100252.97;5014246;27;98942;-75
2024/01/05 09:54:52;;;;;;;7.78;4.90;;;;;;;6.29;72.75;100252.13;5026380;27;97580;-75
2024/01/05 09:57:19;;;;;;;10.20;5.10;;;;;;;6.09;72.96;100248.28;5019472;27;98910;-75
2024/01/05 09:59:47;;;;;;;9.00;4.80;;;;;;;6.47;72.27;100253.41;5021694;27;99658;-75
2024/01/05 10:02:22;;;;;;;10.77;5.15;;;;;;;6.58;71.82;100253.09;5021897;27;99012;-75
2024/01/05 10:04:48;;;;;;;8.90;4.95;;;;;;;6.78;70.84;100241.16;5025131;27;98677;-76
2024/01/05 10:07:16;;;;;;;8.50;4.95;;;;;;;6.90;70.57;100239.06;5019277;27;98571;-75
2024/01/05 10:09:50;;;;;;;10.52;4.50;;;;;;;6.95;70.10;100237.19;5021396;27;98686;-75
2024/01/05 10:12:17;;;;;;;6.75;4.28;;;;;;;6.84;69.36;100240.09;5017757;27;97825;-76
2024/01/05 10:14:44;;;;;;;7.03;4.38;;;;;;;6.83;70.41;100233.13;5022661;27;97849;-75
2024/01/05 10:17:11;;;;;;;6.63;4.30;;;;;;;6.75;70.74;100233.38;5016532;28;98267;-75
2024/01/05 10:19:39;;;;;;;6.10;4.25;;;;;;;6.82;70.11;100226.19;5021420;27;99254;-75
2024/01/05 10:22:10;;;;;;;6.97;3.97;;;;;;;6.85;70.39;100230.47;5018628;27;98731;-75
2024/01/05 10:24:38;;;;;;;7.25;3.95;;;;;;;6.88;69.43;100226.00;5023755;27;97422;-75
2024/01/05 10:27:05;;;;;;;5.18;3.60;;;;;;;7.22;68.93;100231.09;5021756;27;96847;-76
2024/01/05 10:29:32;;;;;;;6.00;3.40;;;;;;;6.88;69.85;100227.78;5026762;27;98981;-76
2024/01/05 10:32:13;;;;;;;6.05;3.67;;;;;;;7.10;69.05;100226.22;5022446;27;98780;-76
2024/01/05 10:34:40;;;;;;;5.65;3.50;;;;;;;7.10;68.85;100220.97;5024698;27;97182;-77
2024/01/05 10:37:07;;;;;;;6.85;3.50;;;;;;;7.18;68.75;100214.59;5020375;27;97931;-76
2024/01/05 10:39:35;;;;;;;5.80;3.53;;;;;;;6.88;69.59;100212.88;5021051;27;99218;-75
2024/01/05 10:42:21;;;;;;;6.43;3.45;;;;;;;6.89;68.75;100206.72;5018717;27;99616;-75
2024/01/05 10:44:50;;;;;;;5.88;3.22;;;;;;;6.93;69.47;100199.59;5020342;27;97246;-75
2024/01/05 10:47:16;;;;;;;9.65;4.10;;;;;;;6.73;70.36;100208.03;5023982;27;101695;-75
2024/01/05 10:49:49;;;;;;;4.32;3.75;;;;;;;6.94;69.69;100198.69;5020982;27;99302;-71
2024/01/05 10:52:16;;;;;;;6.82;3.60;;;;;;;7.02;69.14;100201.97;5021910;27;100483;-70
2024/01/05 10:54:45;;;;;;;5.15;3.20;;;;;;;7.07;68.36;100198.28;5023436;27;96743;-70
2024/01/05 10:57:14;;;;;;;4.57;3.58;;;;;;;6.79;69.98;100198.22;5017671;27;97402;-71
2024/01/05 10:59:44;;;;;;;7.43;4.00;;;;;;;7.05;69.40;100183.47;5019841;27;99218;-71
2024/01/05 11:02:19;;;;;;;7.00;3.78;;;;;;;7.25;68.26;100173.22;5020390;27;99169;-70
2024/01/05 11:04:48;;;;;;;7.03;3.85;;;;;;;7.03;68.66;100173.00;5020361;27;96840;-69
2024/01/05 11:07:16;;;;;;;6.63;3.50;;;;;;;6.73;69.58;100158.16;5024859;27;97343;-70
2024/01/05 11:09:53;;;;;;;5.07;3.58;;;;;;;6.79;70.14;100160.59;5022612;28;101317;-70
2024/01/05 11:12:44;;;;;;;6.18;3.78;;;;;;;6.74;70.70;100155.50;5021823;27;100363;-70
2024/01/05 11:15:30;;;;;;;6.85;4.03;;;;;;;6.60;71.34;100151.53;5018367;27;96800;-70
2024/01/05 11:18:28;;;;;;;4.73;3.67;;;;;;;6.60;71.19;100144.53;5016944;27;97446;-70
2024/01/05 11:21:09;;;;;;;5.45;3.45;;;;;;;6.43;72.34;100135.41;5019197;27;101257;-71
2024/01/05 11:23:38;;;;;;;6.32;3.35;;;;;;;6.50;72.00;100135.19;5022190;27;101088;-70
2024/01/05 11:26:05;;;;;;;5.38;3.83;;;;;;;6.41;72.30;100145.97;5020840;27;98702;-70
2024/01/05 11:28:36;;;;;;;8.57;4.35;;;;;;;6.53;72.96;100144.75;5022691;27;97033;-70
2024/01/05 11:31:04;;;;;;;6.43;3.97;;;;;;;6.46;72.45;100137.94;5020680;27;97510;-71
2024/01/05 11:33:45;;;;;;;6.85;3.80;;;;;;;6.37;73.04;100136.44;5015114;27;98831;-70